createdAt,value
2023-02-02T00:00:50.694Z,4.05
2023-02-02T00:04:54.611Z,4.11
2023-02-02T00:08:58.540Z,4.18
2023-02-02T00:13:01.122Z,4.23
2023-02-02T00:17:01.968Z,4.30
2023-02-02T00:21:23.701Z,4.37
2023-02-02T00:25:27.477Z,4.14
2023-02-02T00:29:34.612Z,4.36
2023-02-02T00:33:48.583Z,4.35
2023-02-02T00:37:57.049Z,3.80
2023-02-02T00:42:03.262Z,4.19
2023-02-02T00:46:13.757Z,4.12
2023-02-02T00:50:17.551Z,3.89
2023-02-02T00:54:24.849Z,3.79
2023-02-02T00:58:26.413Z,3.95
2023-02-02T01:02:30.913Z,3.97
2023-02-02T01:06:36.196Z,3.86
2023-02-02T01:10:43.902Z,3.98
2023-02-02T01:14:44.511Z,3.89
2023-02-02T01:18:55.686Z,3.72
2023-02-02T01:23:04.060Z,3.74
2023-02-02T01:27:11.487Z,3.77
2023-02-02T01:31:21.360Z,3.67
2023-02-02T01:35:27.954Z,3.62
2023-02-02T01:39:36.853Z,3.55
2023-02-02T01:44:06.966Z,3.53
2023-02-02T01:48:11.840Z,3.49
2023-02-02T01:52:14.491Z,3.39
2023-02-02T01:56:28.963Z,3.38
2023-02-02T02:00:39.290Z,3.35
2023-02-02T02:04:46.838Z,3.24
2023-02-02T02:09:00.187Z,3.16
2023-02-02T02:13:25.470Z,3.13
2023-02-02T02:17:51.916Z,3.06
2023-02-02T02:22:23.584Z,3.09
2023-02-02T02:26:54.208Z,3.00
2023-02-02T02:31:34.302Z,2.89
2023-02-02T02:35:46.100Z,2.79
2023-02-02T02:40:05.904Z,2.63
2023-02-02T02:44:18.132Z,2.76
2023-02-02T02:48:22.467Z,2.70
2023-02-02T02:52:35.980Z,2.78
2023-02-02T02:56:51.207Z,2.85
2023-02-02T03:01:03.499Z,2.72
2023-02-02T03:05:26.734Z,2.70
2023-02-02T03:09:36.196Z,2.74
2023-02-02T03:13:39.609Z,2.69
2023-02-02T03:22:05.691Z,2.70
2023-02-02T03:26:11.435Z,2.81
2023-02-02T03:30:18.646Z,2.75
2023-02-02T03:34:20.110Z,2.75
2023-02-02T03:38:24.743Z,2.69
2023-02-02T03:42:33.764Z,2.64
2023-02-02T03:46:35.238Z,2.54
2023-02-02T03:50:36.091Z,2.51
2023-02-02T03:54:42.554Z,2.54
2023-02-02T03:58:53.858Z,2.46
2023-02-02T04:02:54.519Z,2.35
2023-02-02T04:07:09.271Z,2.43
2023-02-02T04:11:18.306Z,2.31
2023-02-02T04:15:25.056Z,2.34
2023-02-02T04:19:28.293Z,2.42
2023-02-02T04:23:35.909Z,2.41
2023-02-02T04:27:37.993Z,2.47
2023-02-02T04:31:44.621Z,2.44
2023-02-02T04:35:45.652Z,2.48
2023-02-02T04:39:47.166Z,2.24
2023-02-02T04:43:50.504Z,2.48
2023-02-02T04:47:54.804Z,2.61
2023-02-02T04:51:55.867Z,2.61
2023-02-02T04:56:02.653Z,2.58
2023-02-02T05:00:06.263Z,2.66
2023-02-02T05:04:10.341Z,2.63
2023-02-02T05:08:15.946Z,2.67
2023-02-02T05:12:25.186Z,2.64
2023-02-02T05:16:32.515Z,2.68
2023-02-02T05:20:35.506Z,2.66
2023-02-02T05:24:39.917Z,2.64
2023-02-02T05:28:42.999Z,2.57
2023-02-02T05:32:44.573Z,2.54
2023-02-02T05:36:57.918Z,2.55
2023-02-02T05:41:02.538Z,2.62
2023-02-02T05:45:09.855Z,2.64
2023-02-02T05:49:18.576Z,2.59
2023-02-02T05:54:04.484Z,2.66
2023-02-02T05:58:21.197Z,2.65
2023-02-02T06:02:24.197Z,2.64
2023-02-02T06:11:45.772Z,2.76
2023-02-02T06:16:15.747Z,2.81
2023-02-02T06:24:49.332Z,2.65
2023-02-02T06:28:59.298Z,2.90
2023-02-02T06:33:03.210Z,2.88
2023-02-02T06:37:03.969Z,2.83
2023-02-02T06:41:06.860Z,3.00
2023-02-02T06:45:27.653Z,3.07
2023-02-02T06:49:28.827Z,3.10
2023-02-02T06:53:30.530Z,3.24
2023-02-02T06:57:45.363Z,3.56
2023-02-02T07:01:50.723Z,3.68
2023-02-02T07:05:51.968Z,3.81
2023-02-02T07:09:58.127Z,3.89
2023-02-02T07:14:00.215Z,3.75
2023-02-02T07:18:05.043Z,3.67
2023-02-02T07:22:11.545Z,3.82
2023-02-02T07:26:15.467Z,4.17
2023-02-02T07:30:20.239Z,4.39
2023-02-02T07:34:24.621Z,4.71
2023-02-02T07:38:28.656Z,4.95
2023-02-02T07:42:30.115Z,5.11
2023-02-02T07:46:32.325Z,5.04
2023-02-02T07:50:35.288Z,5.02
2023-02-02T07:54:39.006Z,5.04
2023-02-02T07:58:39.786Z,5.08
2023-02-02T08:02:39.988Z,5.03
2023-02-02T08:06:44.109Z,5.09
2023-02-02T08:10:53.848Z,5.33
2023-02-02T08:14:55.925Z,5.53
2023-02-02T08:18:57.589Z,5.38
2023-02-02T08:23:15.558Z,5.44
2023-02-02T08:27:19.560Z,5.51
2023-02-02T08:31:25.533Z,5.79
2023-02-02T08:35:30.584Z,6.03
2023-02-02T08:39:34.012Z,6.14
2023-02-02T08:43:34.211Z,6.39
2023-02-02T08:47:42.014Z,6.33
2023-02-02T08:51:43.357Z,6.47
2023-02-02T08:55:51.801Z,6.54
2023-02-02T08:59:53.683Z,6.78
2023-02-02T09:03:56.560Z,6.84
2023-02-02T09:07:59.154Z,6.82
2023-02-02T09:12:18.743Z,6.66
2023-02-02T09:16:23.440Z,6.80
2023-02-02T09:20:25.342Z,6.83
2023-02-02T09:24:29.575Z,6.78
2023-02-02T09:28:32.834Z,6.69
2023-02-02T09:32:37.369Z,6.67
2023-02-02T09:36:48.188Z,6.65
2023-02-02T09:40:49.307Z,6.59
2023-02-02T09:45:02.376Z,6.88
2023-02-02T09:58:44.716Z,7.61
2023-02-02T10:03:04.411Z,7.65
2023-02-02T10:07:45.337Z,7.68
2023-02-02T10:11:56.114Z,7.77
2023-02-02T10:16:07.978Z,8.23
2023-02-02T10:20:22.943Z,8.27
2023-02-02T10:24:27.683Z,8.42
2023-02-02T10:29:01.663Z,8.52
2023-02-02T10:33:18.270Z,8.37
2023-02-02T10:37:35.811Z,8.26
2023-02-02T10:41:49.264Z,8.29
2023-02-02T10:45:56.363Z,8.38
2023-02-02T10:50:19.624Z,8.49
2023-02-02T10:54:55.973Z,8.37
2023-02-02T10:59:06.036Z,8.50
2023-02-02T11:03:12.792Z,8.56
2023-02-02T11:07:20.850Z,8.56
2023-02-02T11:11:32.347Z,8.48
2023-02-02T11:15:35.671Z,8.33
2023-02-02T11:19:40.512Z,8.36
2023-02-02T11:23:56.816Z,8.43
2023-02-02T11:28:01.138Z,8.36
2023-02-02T11:32:42.636Z,8.40
2023-02-02T11:37:19.324Z,8.39
2023-02-02T11:41:36.147Z,8.51
2023-02-02T11:45:42.525Z,8.47
2023-02-02T11:49:45.928Z,8.41
2023-02-02T11:54:11.559Z,8.56
2023-02-02T11:58:30.857Z,8.45
2023-02-02T12:02:36.596Z,8.45
2023-02-02T12:06:40.970Z,8.32
2023-02-02T12:10:57.564Z,8.32
2023-02-02T12:15:13.771Z,8.27
2023-02-02T12:19:39.749Z,8.15
2023-02-02T12:23:58.151Z,7.92
2023-02-02T12:28:06.299Z,8.07
2023-02-02T12:32:23.723Z,7.71
2023-02-02T12:36:54.424Z,7.50
2023-02-02T12:41:26.393Z,6.97
2023-02-02T12:45:56.653Z,7.11
2023-02-02T12:50:18.814Z,6.91
2023-02-02T12:54:55.382Z,6.89
2023-02-02T12:59:24.494Z,6.81
2023-02-02T13:03:59.343Z,6.63
2023-02-02T13:08:29.536Z,6.70
2023-02-02T13:12:43.372Z,6.67
2023-02-02T13:16:53.909Z,6.63
2023-02-02T13:21:04.679Z,6.73
2023-02-02T13:25:17.845Z,6.76
2023-02-02T13:29:48.696Z,6.85
2023-02-02T13:34:12.864Z,6.77
2023-02-02T13:38:27.433Z,6.51
2023-02-02T13:42:42.403Z,6.65
2023-02-02T13:46:54.008Z,6.69
2023-02-02T13:51:13.500Z,6.62
2023-02-02T13:55:46.680Z,6.51
2023-02-02T14:00:07.199Z,6.41
2023-02-02T14:04:27.088Z,6.41
2023-02-02T14:08:46.863Z,6.47
2023-02-02T14:13:02.394Z,6.47
2023-02-02T14:17:18.105Z,6.42
2023-02-02T14:22:11.621Z,6.34
2023-02-02T14:26:52.191Z,6.26
2023-02-02T14:31:52.356Z,6.27
2023-02-02T14:36:20.290Z,6.33
2023-02-02T14:40:51.445Z,6.22
2023-02-02T14:45:40.489Z,6.25
2023-02-02T14:50:05.720Z,6.16
2023-02-02T14:54:49.629Z,5.98
2023-02-02T14:59:09.080Z,5.82
2023-02-02T15:03:54.984Z,5.57
2023-02-02T15:08:11.730Z,5.73
2023-02-02T15:12:37.500Z,5.83
2023-02-02T15:16:43.402Z,5.74
2023-02-02T15:20:53.835Z,5.61
2023-02-02T15:25:05.018Z,5.46
2023-02-02T15:29:10.987Z,5.52
2023-02-02T15:33:28.420Z,5.48
2023-02-02T15:37:39.815Z,5.38
2023-02-02T15:41:49.391Z,5.27
2023-02-02T15:46:04.453Z,5.23
2023-02-02T15:50:29.564Z,5.07
2023-02-02T15:54:36.195Z,5.05
2023-02-02T15:58:53.889Z,4.62
2023-02-02T16:03:00.339Z,4.81
2023-02-02T16:07:02.034Z,4.79
2023-02-02T16:11:19.872Z,4.76
2023-02-02T16:15:27.039Z,4.66
2023-02-02T16:19:32.628Z,4.59
2023-02-02T16:23:37.418Z,4.48
2023-02-02T16:27:38.765Z,4.38
2023-02-02T16:31:43.709Z,4.31
2023-02-02T16:35:51.478Z,4.21
2023-02-02T16:39:52.329Z,4.20
2023-02-02T16:44:01.526Z,4.02
2023-02-02T16:48:33.091Z,4.05
2023-02-02T16:52:38.280Z,4.06
2023-02-02T16:56:55.406Z,3.99
2023-02-02T17:01:14.544Z,4.00
2023-02-02T17:05:32.430Z,3.96
2023-02-02T17:09:41.428Z,3.76
2023-02-02T17:13:48.358Z,3.78
2023-02-02T17:17:56.070Z,3.73
2023-02-02T17:22:04.390Z,3.72
2023-02-02T17:26:16.805Z,3.65
2023-02-02T17:30:20.948Z,3.50
2023-02-02T17:34:38.881Z,3.37
2023-02-02T17:38:47.001Z,3.33
2023-02-02T17:42:54.808Z,3.37
2023-02-02T17:46:57.497Z,3.41
2023-02-02T17:51:11.557Z,3.30
2023-02-02T17:55:26.465Z,3.26
2023-02-02T17:59:31.782Z,3.24
2023-02-02T18:03:39.358Z,3.27
2023-02-02T18:07:44.132Z,3.27
2023-02-02T18:11:49.559Z,3.19
2023-02-02T18:15:51.134Z,2.85
2023-02-02T18:20:00.363Z,3.09
2023-02-02T18:24:03.949Z,3.17
2023-02-02T18:28:07.298Z,3.05
2023-02-02T18:32:08.066Z,3.07
2023-02-02T18:36:15.006Z,3.00
2023-02-02T18:40:35.837Z,3.09
2023-02-02T18:44:47.674Z,2.99
2023-02-02T18:48:52.049Z,2.95
2023-02-02T18:52:55.462Z,3.01
2023-02-02T18:57:02.994Z,2.91
2023-02-02T19:01:14.560Z,2.85
2023-02-02T19:05:35.669Z,2.80
2023-02-02T19:09:36.336Z,2.70
2023-02-02T19:13:37.369Z,2.76
2023-02-02T19:17:46.895Z,2.73
2023-02-02T19:21:48.220Z,2.74
2023-02-02T19:25:54.354Z,2.77
2023-02-02T19:30:02.409Z,2.71
2023-02-02T19:34:21.454Z,2.65
2023-02-02T19:38:45.949Z,2.67
2023-02-02T19:42:49.076Z,2.69
2023-02-02T19:46:56.738Z,2.69
2023-02-02T19:51:48.435Z,2.64
2023-02-02T19:56:01.660Z,2.74
2023-02-02T20:00:14.568Z,2.67
2023-02-02T20:04:20.557Z,2.75
2023-02-02T20:08:32.665Z,2.61
2023-02-02T20:12:37.529Z,2.56
2023-02-02T20:16:43.384Z,2.56
2023-02-02T20:20:49.340Z,2.62
2023-02-02T20:24:56.530Z,2.54
2023-02-02T20:29:18.578Z,2.51
2023-02-02T20:33:36.521Z,2.55
2023-02-02T20:37:49.967Z,2.51
2023-02-02T20:41:57.675Z,2.42
2023-02-02T20:45:58.989Z,2.28
2023-02-02T20:50:01.725Z,2.20
2023-02-02T20:54:03.492Z,2.12
2023-02-02T20:58:12.829Z,2.14
2023-02-02T21:02:27.181Z,2.03
2023-02-02T21:06:35.635Z,1.97
2023-02-02T21:10:38.515Z,1.96
2023-02-02T21:14:44.803Z,1.89
2023-02-02T21:19:31.003Z,1.87
2023-02-02T21:29:12.637Z,1.90
2023-02-02T21:33:18.605Z,1.90
2023-02-02T21:37:55.740Z,1.99
2023-02-02T21:42:26.656Z,2.04
2023-02-02T21:46:48.598Z,1.96
2023-02-02T21:51:00.912Z,1.92
2023-02-02T21:55:19.475Z,1.92
2023-02-02T21:59:28.414Z,1.93
2023-02-02T22:03:38.470Z,2.00
2023-02-02T22:07:44.847Z,1.92
2023-02-02T22:11:55.320Z,1.37
2023-02-02T22:15:57.016Z,1.90
2023-02-02T22:20:03.472Z,2.00
2023-02-02T22:24:20.184Z,1.97
2023-02-02T22:28:26.158Z,1.77
2023-02-02T22:32:27.716Z,1.82
2023-02-02T22:36:29.587Z,1.83
2023-02-02T22:40:40.457Z,1.81
2023-02-02T22:44:54.624Z,1.59
2023-02-02T22:49:00.394Z,1.72
2023-02-02T22:53:05.124Z,1.61
2023-02-02T22:57:13.651Z,1.74
2023-02-02T23:01:20.950Z,1.87
2023-02-02T23:26:11.391Z,1.65
2023-02-02T23:30:36.217Z,1.67
2023-02-02T23:34:58.756Z,1.68
2023-02-02T23:39:27.561Z,1.59
2023-02-02T23:43:51.545Z,1.62
2023-02-02T23:47:59.978Z,1.63
2023-02-02T23:52:09.010Z,1.64
2023-02-02T23:56:45.085Z,1.64
